createdAt,value
2019-04-25T00:01:43.919Z,2.70
2019-04-25T00:04:15.951Z,2.83
2019-04-25T00:06:47.183Z,2.52
2019-04-25T00:09:21.882Z,2.87
2019-04-25T00:11:53.257Z,2.80
2019-04-25T00:14:24.560Z,3.10
2019-04-25T00:16:55.926Z,2.70
2019-04-25T00:19:27.107Z,2.65
2019-04-25T00:22:07.684Z,2.87
2019-04-25T00:24:47.255Z,2.40
2019-04-25T00:27:19.730Z,2.50
2019-04-25T00:29:51.670Z,2.30
2019-04-25T00:32:23.086Z,2.20
2019-04-25T00:34:54.435Z,2.37
2019-04-25T00:37:25.791Z,2.33
2019-04-25T00:39:57.014Z,2.05
2019-04-25T00:42:28.262Z,2.27
2019-04-25T00:44:59.568Z,2.08
2019-04-25T00:47:31.554Z,2.20
2019-04-25T00:50:02.904Z,2.15
2019-04-25T00:52:34.112Z,2.00
2019-04-25T00:55:05.580Z,2.40
2019-04-25T00:57:38.908Z,2.40
2019-04-25T01:00:46.979Z,1.95
2019-04-25T01:03:23.714Z,2.60
2019-04-25T01:05:54.920Z,2.40
2019-04-25T01:08:26.421Z,2.37
2019-04-25T01:10:57.691Z,2.27
2019-04-25T01:13:28.833Z,2.20
2019-04-25T01:15:59.981Z,2.55
2019-04-25T01:18:31.487Z,2.45
2019-04-25T01:21:04.329Z,2.50
2019-04-25T01:23:37.299Z,2.60
2019-04-25T01:26:08.670Z,2.40
2019-04-25T01:28:39.966Z,2.60
2019-04-25T01:31:14.779Z,2.35
2019-04-25T01:33:46.778Z,2.40
2019-04-25T01:36:33.415Z,2.60
2019-04-25T01:39:15.954Z,2.50
2019-04-25T01:41:56.359Z,2.20
2019-04-25T01:44:31.496Z,2.15
2019-04-25T01:47:04.185Z,2.17
2019-04-25T01:49:35.438Z,1.92
2019-04-25T01:52:06.952Z,2.00
2019-04-25T01:54:38.262Z,2.55
2019-04-25T01:57:09.927Z,1.70
2019-04-25T01:59:41.149Z,2.10
2019-04-25T02:02:15.148Z,1.70
2019-04-25T02:04:46.507Z,1.80
2019-04-25T02:07:17.681Z,1.70
2019-04-25T02:09:48.944Z,1.87
2019-04-25T02:12:43.693Z,1.80
2019-04-25T02:15:16.583Z,1.90
2019-04-25T02:17:47.744Z,2.00
2019-04-25T02:20:18.982Z,1.65
2019-04-25T02:22:50.197Z,1.80
2019-04-25T02:25:22.995Z,1.73
2019-04-25T02:27:55.722Z,1.80
2019-04-25T02:30:27.669Z,1.50
2019-04-25T02:33:02.769Z,1.55
2019-04-25T02:35:35.015Z,2.12
2019-04-25T02:38:08.791Z,1.56
2019-04-25T02:40:39.819Z,1.90
2019-04-25T02:43:11.060Z,1.60
2019-04-25T02:46:07.429Z,1.80
2019-04-25T02:49:01.405Z,1.85
2019-04-25T02:51:44.976Z,1.80
2019-04-25T02:54:15.626Z,1.70
2019-04-25T02:56:46.902Z,1.65
2019-04-25T02:59:18.054Z,2.10
2019-04-25T03:01:49.449Z,1.92
2019-04-25T03:04:20.638Z,2.10
2019-04-25T03:06:51.896Z,1.75
2019-04-25T03:09:24.959Z,2.20
2019-04-25T03:11:55.928Z,2.00
2019-04-25T03:14:27.089Z,2.20
2019-04-25T03:16:59.202Z,1.95
2019-04-25T03:19:54.224Z,2.10
2019-04-25T03:22:28.286Z,2.20
2019-04-25T03:25:02.240Z,2.02
2019-04-25T03:27:34.035Z,2.05
2019-04-25T03:30:11.259Z,2.20
2019-04-25T03:32:39.878Z,2.40
2019-04-25T03:35:11.159Z,2.57
2019-04-25T03:37:43.610Z,2.40
2019-04-25T03:40:14.868Z,3.47
2019-04-25T03:42:46.091Z,2.47
2019-04-25T03:45:17.336Z,2.57
2019-04-25T03:47:48.558Z,2.50
2019-04-25T03:50:19.811Z,2.77
2019-04-25T03:52:50.952Z,2.55
2019-04-25T03:55:23.969Z,2.60
2019-04-25T03:57:56.347Z,2.70
2019-04-25T04:00:27.630Z,2.67
2019-04-25T04:03:00.628Z,3.00
2019-04-25T04:05:31.881Z,2.70
2019-04-25T04:08:04.316Z,3.40
2019-04-25T04:10:35.905Z,3.40
2019-04-25T04:13:07.487Z,3.05
2019-04-25T04:15:39.696Z,3.33
2019-04-25T04:18:29.809Z,2.95
2019-04-25T04:21:19.867Z,3.42
2019-04-25T04:24:07.522Z,3.05
2019-04-25T04:26:38.670Z,4.00
2019-04-25T04:29:10.083Z,3.98
2019-04-25T04:31:43.086Z,4.95
2019-04-25T04:34:15.552Z,4.00
2019-04-25T04:36:46.841Z,7.00
2019-04-25T04:39:18.806Z,4.12
2019-04-25T04:41:50.072Z,3.45
2019-04-25T04:44:21.287Z,3.60
2019-04-25T04:46:53.843Z,4.05
2019-04-25T04:49:25.030Z,3.72
2019-04-25T04:51:56.315Z,3.60
2019-04-25T04:54:27.440Z,3.47
2019-04-25T04:56:58.613Z,3.60
2019-04-25T04:59:29.879Z,3.52
2019-04-25T05:02:23.553Z,3.40
2019-04-25T05:05:24.766Z,3.30
2019-04-25T05:08:16.406Z,3.05
2019-04-25T05:10:48.078Z,4.58
2019-04-25T05:13:19.831Z,6.08
2019-04-25T05:15:51.102Z,3.40
2019-04-25T05:18:34.553Z,3.60
2019-04-25T05:20:55.260Z,3.47
2019-04-25T05:23:26.667Z,3.30
2019-04-25T05:25:57.869Z,3.98
2019-04-25T05:28:29.075Z,3.60
2019-04-25T05:31:18.161Z,3.17
2019-04-25T05:33:49.378Z,3.55
2019-04-25T05:36:20.654Z,3.58
2019-04-25T05:38:51.919Z,3.47
2019-04-25T05:41:36.011Z,6.08
2019-04-25T05:44:07.289Z,3.15
2019-04-25T05:46:38.524Z,2.57
2019-04-25T05:49:09.708Z,2.50
2019-04-25T05:51:40.909Z,2.50
2019-04-25T05:54:13.971Z,3.00
2019-04-25T05:56:45.073Z,2.60
2019-04-25T05:59:17.939Z,2.97
2019-04-25T06:01:49.626Z,2.52
2019-04-25T06:04:21.033Z,2.45
2019-04-25T06:06:53.050Z,2.62
2019-04-25T06:09:54.441Z,2.80
2019-04-25T06:12:48.867Z,2.30
2019-04-25T06:15:23.727Z,2.52
2019-04-25T06:18:14.527Z,2.47
2019-04-25T06:20:45.919Z,2.50
2019-04-25T06:23:41.860Z,2.10
2019-04-25T06:26:22.841Z,2.30
2019-04-25T06:28:53.779Z,2.00
2019-04-25T06:31:19.988Z,2.25
2019-04-25T06:33:51.306Z,2.55
2019-04-25T06:36:24.289Z,2.30
2019-04-25T06:38:55.380Z,2.25
2019-04-25T06:41:27.081Z,2.75
2019-04-25T06:44:00.189Z,2.15
2019-04-25T06:46:53.593Z,2.33
2019-04-25T06:49:27.902Z,2.43
2019-04-25T06:51:59.282Z,2.02
2019-04-25T06:54:30.463Z,2.42
2019-04-25T06:57:01.672Z,2.20
2019-04-25T06:59:34.404Z,2.27
2019-04-25T07:02:05.764Z,1.87
2019-04-25T07:04:37.025Z,1.90
2019-04-25T07:07:12.331Z,2.35
2019-04-25T07:09:41.228Z,2.12
2019-04-25T07:12:13.445Z,2.30
2019-04-25T07:14:44.796Z,2.05
2019-04-25T07:17:15.996Z,2.10
2019-04-25T07:19:47.315Z,2.17
2019-04-25T07:22:18.570Z,1.93
2019-04-25T07:24:49.775Z,1.98
2019-04-25T07:27:38.601Z,2.30
2019-04-25T07:30:48.658Z,2.00
2019-04-25T07:33:17.625Z,1.72
2019-04-25T07:35:48.829Z,1.72
2019-04-25T07:38:19.970Z,1.87
2019-04-25T07:40:51.211Z,1.50
2019-04-25T07:43:23.356Z,1.62
2019-04-25T07:45:54.621Z,1.42
2019-04-25T07:48:26.833Z,1.75
2019-04-25T07:50:58.132Z,1.37
2019-04-25T07:53:30.697Z,1.62
2019-04-25T07:56:04.160Z,1.43
2019-04-25T07:58:49.142Z,1.67
2019-04-25T08:01:15.929Z,1.80
2019-04-25T08:03:47.151Z,1.55
2019-04-25T08:06:18.430Z,2.15
2019-04-25T08:08:49.688Z,1.60
2019-04-25T08:11:20.860Z,2.33
2019-04-25T08:14:11.060Z,1.50
2019-04-25T08:16:44.820Z,1.72
2019-04-25T08:19:16.260Z,1.70
2019-04-25T08:21:47.754Z,2.17
2019-04-25T08:24:20.040Z,1.60
2019-04-25T08:26:51.295Z,1.77
2019-04-25T08:29:25.272Z,1.65
2019-04-25T08:31:56.077Z,1.70
2019-04-25T08:34:27.302Z,1.60
2019-04-25T08:36:58.477Z,1.50
2019-04-25T08:39:30.433Z,1.80
2019-04-25T08:42:03.361Z,1.60
2019-04-25T08:44:35.721Z,1.60
2019-04-25T08:47:07.453Z,1.30
2019-04-25T08:49:46.004Z,1.30
2019-04-25T08:52:18.332Z,1.62
2019-04-25T08:55:06.541Z,1.27
2019-04-25T08:57:55.846Z,1.30
2019-04-25T09:01:00.907Z,1.80
2019-04-25T09:03:36.623Z,1.60
2019-04-25T09:06:09.446Z,1.40
2019-04-25T09:08:41.081Z,1.45
2019-04-25T09:11:13.345Z,1.60
2019-04-25T09:13:45.050Z,1.60
2019-04-25T09:16:16.408Z,1.42
2019-04-25T09:18:47.660Z,1.30
2019-04-25T09:21:18.891Z,1.50
2019-04-25T09:23:50.110Z,1.20
2019-04-25T09:26:21.307Z,1.47
2019-04-25T09:28:53.680Z,1.60
2019-04-25T09:31:25.093Z,1.60
2019-04-25T09:33:56.985Z,1.47
2019-04-25T09:36:28.219Z,1.32
2019-04-25T09:39:03.774Z,1.30
2019-04-25T09:41:36.500Z,1.50
2019-04-25T09:44:09.312Z,1.63
2019-04-25T09:46:40.487Z,1.30
2019-04-25T09:49:25.879Z,1.40
2019-04-25T09:52:16.395Z,1.40
2019-04-25T09:54:53.533Z,1.40
2019-04-25T09:57:56.044Z,2.72
2019-04-25T10:00:36.593Z,1.57
2019-04-25T10:03:07.896Z,1.45
2019-04-25T10:05:39.206Z,1.30
2019-04-25T10:08:10.415Z,1.25
2019-04-25T10:10:42.480Z,1.27
2019-04-25T10:13:13.741Z,1.20
2019-04-25T10:16:04.402Z,1.27
2019-04-25T10:18:37.740Z,1.35
2019-04-25T10:21:14.341Z,1.27
2019-04-25T10:23:46.753Z,1.45
2019-04-25T10:26:19.784Z,1.30
2019-04-25T10:28:51.793Z,1.10
2019-04-25T10:31:24.110Z,1.00
2019-04-25T10:33:55.302Z,1.20
2019-04-25T10:36:26.670Z,1.20
2019-04-25T10:39:07.635Z,1.15
2019-04-25T10:41:33.296Z,1.30
2019-04-25T10:44:04.401Z,1.50
2019-04-25T10:46:35.608Z,1.27
2019-04-25T10:49:07.155Z,1.50
2019-04-25T10:51:38.364Z,1.30
2019-04-25T10:54:09.682Z,1.20
2019-04-25T10:56:41.707Z,1.30
2019-04-25T10:59:14.414Z,1.30
2019-04-25T11:01:47.228Z,1.17
2019-04-25T11:04:30.536Z,1.10
2019-04-25T11:07:03.615Z,1.10
2019-04-25T11:09:34.691Z,1.12
2019-04-25T11:12:08.574Z,1.12
2019-04-25T11:14:39.999Z,1.30
2019-04-25T11:17:13.220Z,1.60
2019-04-25T11:19:45.165Z,1.57
2019-04-25T11:22:16.505Z,0.93
2019-04-25T11:24:48.584Z,1.10
2019-04-25T11:27:20.021Z,0.93
2019-04-25T11:29:53.556Z,1.17
2019-04-25T11:32:27.675Z,0.98
2019-04-25T11:34:59.671Z,1.05
2019-04-25T11:37:34.210Z,1.60
2019-04-25T11:40:24.527Z,1.35
2019-04-25T11:42:55.825Z,1.00
2019-04-25T11:45:27.025Z,1.00
2019-04-25T11:47:58.610Z,1.07
2019-04-25T11:50:29.997Z,1.30
2019-04-25T11:53:01.388Z,1.20
2019-04-25T11:55:32.638Z,0.80
2019-04-25T11:58:03.861Z,0.90
2019-04-25T12:00:35.069Z,0.88
2019-04-25T12:03:08.312Z,1.00
2019-04-25T12:05:39.787Z,0.88
2019-04-25T12:08:13.450Z,0.90
2019-04-25T12:10:45.770Z,0.90
2019-04-25T12:13:17.873Z,0.93
2019-04-25T12:15:49.840Z,1.00
2019-04-25T12:18:21.050Z,1.10
2019-04-25T12:20:53.271Z,0.90
2019-04-25T12:23:25.126Z,0.90
2019-04-25T12:25:56.300Z,0.72
2019-04-25T12:28:27.562Z,1.30
2019-04-25T12:30:58.852Z,1.10
2019-04-25T12:33:30.144Z,0.62
2019-04-25T12:36:01.542Z,0.80
2019-04-25T12:38:33.483Z,0.80
2019-04-25T12:41:06.446Z,0.80
2019-04-25T12:43:39.373Z,1.07
2019-04-25T12:46:16.235Z,0.90
2019-04-25T12:48:47.637Z,0.70
2019-04-25T12:51:20.198Z,0.57
2019-04-25T12:53:51.418Z,0.80
2019-04-25T12:56:24.573Z,0.78
2019-04-25T12:58:56.559Z,0.60
2019-04-25T13:01:27.804Z,0.60
2019-04-25T13:03:58.992Z,0.50
2019-04-25T13:06:30.205Z,0.80
2019-04-25T13:09:01.632Z,0.90
2019-04-25T13:11:34.909Z,0.50
2019-04-25T13:14:07.316Z,0.52
2019-04-25T13:16:38.905Z,0.40
2019-04-25T13:19:20.071Z,0.50
2019-04-25T13:21:43.944Z,0.50
2019-04-25T13:24:15.296Z,0.50
2019-04-25T13:26:53.558Z,0.45
2019-04-25T13:29:49.496Z,0.47
2019-04-25T13:32:38.442Z,0.30
2019-04-25T13:35:16.983Z,0.75
2019-04-25T13:37:48.262Z,0.60
2019-04-25T13:40:19.441Z,0.40
2019-04-25T13:42:50.685Z,0.57
2019-04-25T13:45:22.259Z,0.40
2019-04-25T13:47:53.544Z,0.62
2019-04-25T13:50:25.202Z,0.50
2019-04-25T13:52:57.350Z,0.50
2019-04-25T13:55:28.628Z,0.35
2019-04-25T13:57:59.844Z,0.40
2019-04-25T14:00:31.164Z,0.47
2019-04-25T14:03:02.370Z,0.40
2019-04-25T14:05:35.309Z,0.50
2019-04-25T14:08:06.906Z,0.40
2019-04-25T14:10:38.098Z,0.37
2019-04-25T14:13:09.285Z,0.40
2019-04-25T14:15:45.264Z,0.40
2019-04-25T14:18:34.505Z,0.50
2019-04-25T14:21:11.022Z,0.30
2019-04-25T14:23:42.177Z,0.72
2019-04-25T14:26:13.520Z,0.50
2019-04-25T14:28:44.746Z,0.35
2019-04-25T14:31:35.481Z,0.50
2019-04-25T14:33:51.735Z,0.40
2019-04-25T14:36:25.009Z,0.37
2019-04-25T14:38:56.190Z,0.40
2019-04-25T14:41:28.128Z,0.53
2019-04-25T14:43:59.361Z,0.60
2019-04-25T14:46:30.617Z,0.57
2019-04-25T14:49:01.876Z,0.50
2019-04-25T14:51:33.130Z,0.50
2019-04-25T14:54:06.277Z,0.47
2019-04-25T14:56:57.982Z,1.10
2019-04-25T14:59:29.252Z,0.93
2019-04-25T15:02:00.459Z,0.50
2019-04-25T15:04:31.732Z,0.35
2019-04-25T15:07:03.040Z,0.72
2019-04-25T15:09:34.270Z,0.40
2019-04-25T15:12:05.571Z,0.40
2019-04-25T15:14:36.720Z,0.47
2019-04-25T15:17:09.191Z,0.50
2019-04-25T15:19:40.504Z,0.60
2019-04-25T15:22:11.883Z,0.35
2019-04-25T15:24:43.108Z,0.40
2019-04-25T15:27:14.277Z,0.33
2019-04-25T15:29:45.435Z,0.70
2019-04-25T15:32:19.937Z,0.40
2019-04-25T15:34:55.148Z,0.47
2019-04-25T15:37:45.267Z,0.42
2019-04-25T15:40:26.363Z,0.50
2019-04-25T15:43:06.633Z,0.50
2019-04-25T15:46:06.252Z,0.55
2019-04-25T15:48:38.457Z,0.82
2019-04-25T15:51:09.778Z,0.50
2019-04-25T15:53:41.061Z,0.40
2019-04-25T15:56:12.328Z,0.50
2019-04-25T15:58:43.630Z,0.40
2019-04-25T16:01:14.911Z,0.47
2019-04-25T16:03:46.331Z,0.40
2019-04-25T16:06:17.635Z,0.50
2019-04-25T16:08:49.042Z,0.72
2019-04-25T16:11:20.393Z,0.53
2019-04-25T16:13:51.690Z,0.50
2019-04-25T16:16:22.888Z,0.50
2019-04-25T16:18:54.185Z,0.50
2019-04-25T16:21:25.383Z,0.50
2019-04-25T16:23:57.844Z,0.70
2019-04-25T16:26:29.576Z,0.53
2019-04-25T16:29:00.894Z,0.40
2019-04-25T16:31:33.155Z,0.50
2019-04-25T16:34:04.375Z,1.17
2019-04-25T16:36:35.541Z,3.50
2019-04-25T16:39:09.160Z,1.00
2019-04-25T16:41:42.628Z,0.57
2019-04-25T16:44:15.631Z,0.70
2019-04-25T16:46:46.847Z,0.60
2019-04-25T16:49:18.114Z,0.70
2019-04-25T16:51:49.383Z,0.85
2019-04-25T16:54:21.311Z,0.80
2019-04-25T16:56:52.535Z,0.90
2019-04-25T16:59:23.721Z,0.90
2019-04-25T17:01:55.179Z,1.22
2019-04-25T17:04:29.723Z,0.95
2019-04-25T17:07:02.157Z,1.05
2019-04-25T17:09:33.879Z,1.00
2019-04-25T17:12:06.281Z,1.25
2019-04-25T17:14:46.062Z,0.80
2019-04-25T17:17:40.432Z,2.00
2019-04-25T17:20:17.622Z,1.77
2019-04-25T17:22:48.824Z,3.33
2019-04-25T17:25:20.382Z,2.80
2019-04-25T17:27:51.695Z,1.92
2019-04-25T17:30:23.275Z,2.10
2019-04-25T17:33:04.430Z,1.55
2019-04-25T17:35:58.941Z,1.17
2019-04-25T17:38:49.246Z,0.90
2019-04-25T17:41:20.684Z,1.10
2019-04-25T17:43:52.956Z,1.00
2019-04-25T17:46:24.175Z,0.73
2019-04-25T17:48:55.350Z,0.80
2019-04-25T17:51:26.628Z,0.80
2019-04-25T17:53:59.034Z,0.88
2019-04-25T17:56:30.422Z,0.80
2019-04-25T17:59:01.665Z,2.70
2019-04-25T18:01:34.053Z,3.12
2019-04-25T18:04:05.894Z,1.10
2019-04-25T18:06:37.680Z,0.80
2019-04-25T18:09:09.087Z,0.80
2019-04-25T18:11:42.257Z,0.70
2019-04-25T18:14:13.606Z,1.00
2019-04-25T18:16:46.501Z,0.90
2019-04-25T18:19:37.265Z,0.70
2019-04-25T18:22:15.678Z,0.72
2019-04-25T18:25:24.398Z,0.88
2019-04-25T18:28:04.452Z,0.90
2019-04-25T18:30:35.801Z,1.12
2019-04-25T18:33:16.825Z,0.80
2019-04-25T18:35:48.755Z,1.00
2019-04-25T18:38:39.660Z,1.80
2019-04-25T18:41:20.318Z,2.32
2019-04-25T18:43:56.405Z,1.42
2019-04-25T18:46:40.485Z,0.85
2019-04-25T18:49:12.684Z,1.00
2019-04-25T18:51:55.170Z,0.88
2019-04-25T18:54:34.014Z,1.20
2019-04-25T18:57:23.159Z,1.00
2019-04-25T19:00:13.364Z,1.35
2019-04-25T19:03:02.053Z,0.90
2019-04-25T19:05:52.272Z,0.90
2019-04-25T19:08:24.530Z,1.20
2019-04-25T19:10:55.779Z,1.20
2019-04-25T19:13:27.044Z,1.00
2019-04-25T19:15:58.259Z,2.00
2019-04-25T19:18:29.463Z,3.35
2019-04-25T19:21:00.782Z,1.50
2019-04-25T19:23:32.041Z,2.10
2019-04-25T19:26:03.293Z,1.47
2019-04-25T19:28:34.463Z,1.62
2019-04-25T19:31:05.649Z,1.90
2019-04-25T19:33:37.419Z,2.55
2019-04-25T19:36:08.658Z,1.60
2019-04-25T19:38:40.649Z,1.30
2019-04-25T19:41:29.884Z,1.30
2019-04-25T19:44:05.011Z,1.35
2019-04-25T19:46:41.484Z,1.00
2019-04-25T19:49:13.008Z,1.50
2019-04-25T19:51:45.077Z,2.02
2019-04-25T19:54:17.505Z,4.10
2019-04-25T19:56:49.620Z,2.15
2019-04-25T19:59:20.928Z,1.27
2019-04-25T20:01:53.925Z,1.15
2019-04-25T20:04:44.392Z,1.20
2019-04-25T20:07:34.590Z,1.20
2019-04-25T20:10:29.420Z,1.10
2019-04-25T20:13:00.781Z,1.10
2019-04-25T20:15:32.009Z,1.10
2019-04-25T20:18:03.182Z,1.13
2019-04-25T20:20:34.444Z,1.10
2019-04-25T20:23:05.591Z,1.00
2019-04-25T20:25:36.980Z,1.25
2019-04-25T20:28:08.212Z,0.90
2019-04-25T20:30:39.447Z,1.05
2019-04-25T20:33:10.825Z,1.02
2019-04-25T20:35:42.092Z,1.05
2019-04-25T20:38:13.420Z,0.98
2019-04-25T20:40:45.203Z,0.90
2019-04-25T20:43:17.555Z,1.20
2019-04-25T20:45:48.870Z,1.02
2019-04-25T20:48:20.093Z,1.03
2019-04-25T20:50:52.379Z,1.13
2019-04-25T20:53:23.923Z,1.10
2019-04-25T20:55:55.067Z,1.12
2019-04-25T20:58:26.390Z,0.95
2019-04-25T21:00:59.216Z,1.00
2019-04-25T21:03:30.535Z,1.17
2019-04-25T21:06:10.416Z,1.30
2019-04-25T21:08:41.755Z,1.22
2019-04-25T21:11:12.988Z,1.23
2019-04-25T21:14:02.050Z,1.07
2019-04-25T21:16:51.860Z,1.20
2019-04-25T21:19:27.104Z,1.10
2019-04-25T21:21:58.730Z,1.47
2019-04-25T21:24:31.039Z,1.07
2019-04-25T21:27:02.604Z,1.22
2019-04-25T21:29:33.931Z,1.10
2019-04-25T21:32:05.187Z,1.20
2019-04-25T21:34:36.515Z,1.07
2019-04-25T21:37:08.042Z,1.07
2019-04-25T21:39:51.506Z,1.00
2019-04-25T21:42:56.220Z,1.10
2019-04-25T21:45:27.862Z,1.07
2019-04-25T21:47:59.342Z,0.95
2019-04-25T21:50:30.912Z,1.00
2019-04-25T21:53:02.399Z,1.00
2019-04-25T21:55:34.732Z,1.10
2019-04-25T21:58:06.829Z,1.30
2019-04-25T22:00:56.583Z,1.10
2019-04-25T22:03:30.082Z,1.17
2019-04-25T22:06:01.659Z,1.20
2019-04-25T22:08:33.387Z,1.15
2019-04-25T22:11:05.530Z,1.25
2019-04-25T22:13:37.078Z,1.12
2019-04-25T22:16:08.890Z,1.10
2019-04-25T22:18:40.536Z,1.22
2019-04-25T22:21:12.152Z,1.83
2019-04-25T22:23:43.889Z,1.20
2019-04-25T22:26:15.138Z,1.10
2019-04-25T22:28:46.605Z,1.10
2019-04-25T22:31:23.016Z,1.22
2019-04-25T22:34:18.937Z,1.20
2019-04-25T22:36:50.456Z,1.40
2019-04-25T22:39:21.618Z,1.57
2019-04-25T22:41:52.857Z,1.20
2019-04-25T22:44:24.347Z,1.40
2019-04-25T22:46:55.905Z,1.47
2019-04-25T22:49:28.787Z,1.05
2019-04-25T22:52:01.672Z,1.37
2019-04-25T22:54:33.919Z,1.20
2019-04-25T22:57:05.084Z,1.37
2019-04-25T22:59:36.918Z,1.20
2019-04-25T23:02:26.157Z,1.15
2019-04-25T23:05:19.596Z,1.42
2019-04-25T23:07:52.120Z,1.07
2019-04-25T23:10:23.531Z,1.10
2019-04-25T23:12:54.756Z,1.10
2019-04-25T23:15:25.979Z,1.35
2019-04-25T23:17:57.438Z,1.27
2019-04-25T23:20:28.574Z,1.30
2019-04-25T23:22:59.735Z,1.50
2019-04-25T23:25:49.878Z,1.60
2019-04-25T23:28:22.521Z,1.20
2019-04-25T23:31:12.551Z,1.20
2019-04-25T23:33:44.044Z,1.32
2019-04-25T23:36:15.611Z,1.20
2019-04-25T23:38:46.782Z,1.30
2019-04-25T23:41:18.295Z,1.53
2019-04-25T23:43:49.475Z,1.20
2019-04-25T23:46:20.692Z,1.53
2019-04-25T23:48:51.811Z,1.57
2019-04-25T23:51:23.030Z,1.20
2019-04-25T23:53:54.392Z,1.32
2019-04-25T23:56:25.613Z,1.37
2019-04-25T23:58:56.950Z,1.30
